sensor_id;sensor_type;location;lat;lon;timestamp;P1;durP1;ratioP1;P2;durP2;ratioP2
52386;SDS011;38317;53.084;6.960;2023-07-13T00:01:49;5.25;;;1.13;;
52386;SDS011;38317;53.084;6.960;2023-07-13T00:04:20;3.83;;;1.02;;
52386;SDS011;38317;53.084;6.960;2023-07-13T00:06:48;3.95;;;0.98;;
52386;SDS011;38317;53.084;6.960;2023-07-13T00:09:14;8.63;;;1.92;;
52386;SDS011;38317;53.084;6.960;2023-07-13T00:11:41;4.57;;;1.20;;
52386;SDS011;38317;53.084;6.960;2023-07-13T00:14:08;5.18;;;1.23;;
52386;SDS011;38317;53.084;6.960;2023-07-13T00:16:35;5.13;;;1.42;;
52386;SDS011;38317;53.084;6.960;2023-07-13T00:19:03;3.10;;;0.90;;
52386;SDS011;38317;53.084;6.960;2023-07-13T00:21:29;6.43;;;1.27;;
52386;SDS011;38317;53.084;6.960;2023-07-13T00:23:56;6.18;;;1.10;;
52386;SDS011;38317;53.084;6.960;2023-07-13T00:26:22;5.15;;;1.10;;
52386;SDS011;38317;53.084;6.960;2023-07-13T00:28:48;3.47;;;0.77;;
52386;SDS011;38317;53.084;6.960;2023-07-13T00:31:14;5.03;;;0.90;;
52386;SDS011;38317;53.084;6.960;2023-07-13T00:33:40;3.95;;;1.00;;
52386;SDS011;38317;53.084;6.960;2023-07-13T00:36:07;6.30;;;1.10;;
52386;SDS011;38317;53.084;6.960;2023-07-13T00:38:33;6.28;;;1.35;;
52386;SDS011;38317;53.084;6.960;2023-07-13T00:40:59;6.53;;;1.05;;
52386;SDS011;38317;53.084;6.960;2023-07-13T00:43:26;5.80;;;1.30;;
52386;SDS011;38317;53.084;6.960;2023-07-13T00:48:20;7.10;;;1.15;;
52386;SDS011;38317;53.084;6.960;2023-07-13T00:50:48;4.32;;;1.05;;
52386;SDS011;38317;53.084;6.960;2023-07-13T00:53:17;6.10;;;1.23;;
52386;SDS011;38317;53.084;6.960;2023-07-13T00:55:43;9.38;;;1.60;;
52386;SDS011;38317;53.084;6.960;2023-07-13T00:58:10;5.63;;;1.15;;
52386;SDS011;38317;53.084;6.960;2023-07-13T01:00:36;9.23;;;1.30;;
52386;SDS011;38317;53.084;6.960;2023-07-13T01:03:03;5.22;;;1.02;;
52386;SDS011;38317;53.084;6.960;2023-07-13T01:05:30;4.60;;;1.23;;
52386;SDS011;38317;53.084;6.960;2023-07-13T01:07:58;9.43;;;1.50;;
52386;SDS011;38317;53.084;6.960;2023-07-13T01:10:25;7.90;;;1.20;;
52386;SDS011;38317;53.084;6.960;2023-07-13T01:12:51;10.00;;;1.20;;
52386;SDS011;38317;53.084;6.960;2023-07-13T01:18:15;6.45;;;1.42;;
52386;SDS011;38317;53.084;6.960;2023-07-13T01:20:53;6.20;;;1.00;;
52386;SDS011;38317;53.084;6.960;2023-07-13T01:23:23;6.38;;;1.17;;
52386;SDS011;38317;53.084;6.960;2023-07-13T01:25:50;7.72;;;1.40;;
52386;SDS011;38317;53.084;6.960;2023-07-13T01:28:17;6.20;;;1.30;;
52386;SDS011;38317;53.084;6.960;2023-07-13T01:30:43;4.03;;;1.20;;
52386;SDS011;38317;53.084;6.960;2023-07-13T01:33:12;5.53;;;1.45;;
52386;SDS011;38317;53.084;6.960;2023-07-13T01:35:39;4.82;;;1.10;;
52386;SDS011;38317;53.084;6.960;2023-07-13T01:38:05;8.20;;;1.45;;
52386;SDS011;38317;53.084;6.960;2023-07-13T01:40:31;5.85;;;1.58;;
52386;SDS011;38317;53.084;6.960;2023-07-13T01:42:58;4.75;;;1.15;;
52386;SDS011;38317;53.084;6.960;2023-07-13T01:45:25;6.85;;;1.40;;
52386;SDS011;38317;53.084;6.960;2023-07-13T01:47:51;5.57;;;1.65;;
52386;SDS011;38317;53.084;6.960;2023-07-13T01:50:16;4.85;;;1.30;;
52386;SDS011;38317;53.084;6.960;2023-07-13T01:52:42;7.03;;;1.33;;
52386;SDS011;38317;53.084;6.960;2023-07-13T01:55:08;5.22;;;1.23;;
52386;SDS011;38317;53.084;6.960;2023-07-13T01:57:34;7.32;;;1.27;;
52386;SDS011;38317;53.084;6.960;2023-07-13T02:00:02;5.78;;;1.27;;
52386;SDS011;38317;53.084;6.960;2023-07-13T02:02:30;4.82;;;1.08;;
52386;SDS011;38317;53.084;6.960;2023-07-13T02:04:56;6.50;;;1.10;;
52386;SDS011;38317;53.084;6.960;2023-07-13T02:07:22;4.45;;;1.00;;
52386;SDS011;38317;53.084;6.960;2023-07-13T02:09:47;5.72;;;1.17;;
52386;SDS011;38317;53.084;6.960;2023-07-13T02:12:13;6.60;;;1.95;;
52386;SDS011;38317;53.084;6.960;2023-07-13T02:14:39;6.38;;;1.25;;
52386;SDS011;38317;53.084;6.960;2023-07-13T02:17:05;6.57;;;1.25;;
52386;SDS011;38317;53.084;6.960;2023-07-13T02:19:31;8.02;;;1.60;;
52386;SDS011;38317;53.084;6.960;2023-07-13T02:21:57;5.03;;;1.00;;
52386;SDS011;38317;53.084;6.960;2023-07-13T02:24:22;6.95;;;1.08;;
52386;SDS011;38317;53.084;6.960;2023-07-13T02:26:48;5.90;;;1.42;;
52386;SDS011;38317;53.084;6.960;2023-07-13T02:29:14;8.45;;;1.20;;
52386;SDS011;38317;53.084;6.960;2023-07-13T02:31:39;6.45;;;1.70;;
52386;SDS011;38317;53.084;6.960;2023-07-13T02:34:05;3.88;;;1.05;;
52386;SDS011;38317;53.084;6.960;2023-07-13T02:36:31;5.50;;;1.05;;
52386;SDS011;38317;53.084;6.960;2023-07-13T02:39:00;5.55;;;1.13;;
52386;SDS011;38317;53.084;6.960;2023-07-13T02:41:27;8.52;;;1.83;;
52386;SDS011;38317;53.084;6.960;2023-07-13T02:43:53;5.38;;;1.40;;
52386;SDS011;38317;53.084;6.960;2023-07-13T02:46:21;8.75;;;1.20;;
52386;SDS011;38317;53.084;6.960;2023-07-13T02:48:49;7.13;;;1.20;;
52386;SDS011;38317;53.084;6.960;2023-07-13T02:51:14;5.85;;;1.23;;
52386;SDS011;38317;53.084;6.960;2023-07-13T02:53:40;6.80;;;1.35;;
52386;SDS011;38317;53.084;6.960;2023-07-13T02:56:06;11.25;;;1.90;;
52386;SDS011;38317;53.084;6.960;2023-07-13T02:58:32;6.47;;;1.50;;
52386;SDS011;38317;53.084;6.960;2023-07-13T03:01:05;9.05;;;1.52;;
52386;SDS011;38317;53.084;6.960;2023-07-13T03:03:35;7.07;;;1.40;;
52386;SDS011;38317;53.084;6.960;2023-07-13T03:06:02;6.80;;;1.45;;
52386;SDS011;38317;53.084;6.960;2023-07-13T03:08:30;7.47;;;1.40;;
52386;SDS011;38317;53.084;6.960;2023-07-13T03:10:59;10.10;;;1.50;;
52386;SDS011;38317;53.084;6.960;2023-07-13T03:13:45;7.53;;;1.73;;
52386;SDS011;38317;53.084;6.960;2023-07-13T03:16:11;5.90;;;1.35;;
52386;SDS011;38317;53.084;6.960;2023-07-13T03:18:37;8.70;;;1.60;;
52386;SDS011;38317;53.084;6.960;2023-07-13T03:21:04;7.13;;;1.17;;
52386;SDS011;38317;53.084;6.960;2023-07-13T03:23:30;5.82;;;1.40;;
52386;SDS011;38317;53.084;6.960;2023-07-13T03:26:10;7.68;;;1.42;;
52386;SDS011;38317;53.084;6.960;2023-07-13T03:28:39;6.95;;;1.70;;
52386;SDS011;38317;53.084;6.960;2023-07-13T03:31:09;5.78;;;1.30;;
52386;SDS011;38317;53.084;6.960;2023-07-13T03:33:37;7.93;;;1.95;;
52386;SDS011;38317;53.084;6.960;2023-07-13T03:36:03;6.97;;;1.35;;
52386;SDS011;38317;53.084;6.960;2023-07-13T03:38:31;7.47;;;1.67;;
52386;SDS011;38317;53.084;6.960;2023-07-13T03:40:57;6.68;;;1.80;;
52386;SDS011;38317;53.084;6.960;2023-07-13T03:43:23;5.18;;;1.40;;
52386;SDS011;38317;53.084;6.960;2023-07-13T03:45:48;12.98;;;2.17;;
52386;SDS011;38317;53.084;6.960;2023-07-13T03:48:14;7.35;;;1.35;;
52386;SDS011;38317;53.084;6.960;2023-07-13T03:50:40;9.55;;;1.60;;
52386;SDS011;38317;53.084;6.960;2023-07-13T03:53:06;8.00;;;1.50;;
52386;SDS011;38317;53.084;6.960;2023-07-13T03:55:32;8.38;;;2.17;;
52386;SDS011;38317;53.084;6.960;2023-07-13T03:57:59;9.60;;;2.03;;
52386;SDS011;38317;53.084;6.960;2023-07-13T04:00:26;5.88;;;1.77;;
52386;SDS011;38317;53.084;6.960;2023-07-13T04:02:52;8.02;;;1.63;;
52386;SDS011;38317;53.084;6.960;2023-07-13T04:05:18;8.05;;;1.55;;
52386;SDS011;38317;53.084;6.960;2023-07-13T04:07:44;7.72;;;1.58;;
52386;SDS011;38317;53.084;6.960;2023-07-13T04:10:09;9.15;;;1.63;;
52386;SDS011;38317;53.084;6.960;2023-07-13T04:12:35;11.77;;;2.35;;
52386;SDS011;38317;53.084;6.960;2023-07-13T04:15:03;7.53;;;1.40;;
52386;SDS011;38317;53.084;6.960;2023-07-13T04:17:29;8.43;;;1.75;;
52386;SDS011;38317;53.084;6.960;2023-07-13T04:19:55;8.23;;;1.90;;
52386;SDS011;38317;53.084;6.960;2023-07-13T04:22:21;6.63;;;1.45;;
52386;SDS011;38317;53.084;6.960;2023-07-13T04:24:46;7.70;;;1.60;;
52386;SDS011;38317;53.084;6.960;2023-07-13T04:27:12;7.93;;;1.70;;
52386;SDS011;38317;53.084;6.960;2023-07-13T04:29:38;11.07;;;1.70;;
52386;SDS011;38317;53.084;6.960;2023-07-13T04:32:03;4.88;;;1.48;;
52386;SDS011;38317;53.084;6.960;2023-07-13T04:34:29;6.97;;;1.35;;
52386;SDS011;38317;53.084;6.960;2023-07-13T04:36:55;7.97;;;1.95;;
52386;SDS011;38317;53.084;6.960;2023-07-13T04:39:21;10.82;;;2.00;;
52386;SDS011;38317;53.084;6.960;2023-07-13T04:41:47;9.02;;;1.70;;
52386;SDS011;38317;53.084;6.960;2023-07-13T04:44:12;8.93;;;1.58;;
52386;SDS011;38317;53.084;6.960;2023-07-13T04:46:38;10.15;;;2.33;;
52386;SDS011;38317;53.084;6.960;2023-07-13T04:49:04;9.07;;;1.90;;
52386;SDS011;38317;53.084;6.960;2023-07-13T04:51:30;7.68;;;1.40;;
52386;SDS011;38317;53.084;6.960;2023-07-13T04:53:55;5.80;;;1.58;;
52386;SDS011;38317;53.084;6.960;2023-07-13T04:56:21;9.77;;;1.90;;
52386;SDS011;38317;53.084;6.960;2023-07-13T04:58:47;7.25;;;1.60;;
52386;SDS011;38317;53.084;6.960;2023-07-13T05:01:12;6.32;;;1.63;;
52386;SDS011;38317;53.084;6.960;2023-07-13T05:03:38;5.78;;;1.58;;
52386;SDS011;38317;53.084;6.960;2023-07-13T05:06:05;8.38;;;1.42;;
52386;SDS011;38317;53.084;6.960;2023-07-13T05:08:35;7.65;;;1.95;;
52386;SDS011;38317;53.084;6.960;2023-07-13T05:11:01;8.23;;;2.20;;
52386;SDS011;38317;53.084;6.960;2023-07-13T05:13:28;6.07;;;2.10;;
52386;SDS011;38317;53.084;6.960;2023-07-13T05:15:57;9.38;;;1.70;;
52386;SDS011;38317;53.084;6.960;2023-07-13T05:18:25;9.77;;;1.90;;
52386;SDS011;38317;53.084;6.960;2023-07-13T05:21:25;9.60;;;2.10;;
52386;SDS011;38317;53.084;6.960;2023-07-13T05:23:43;12.10;;;2.58;;
52386;SDS011;38317;53.084;6.960;2023-07-13T05:26:09;12.38;;;2.80;;
52386;SDS011;38317;53.084;6.960;2023-07-13T05:28:39;8.52;;;1.63;;
52386;SDS011;38317;53.084;6.960;2023-07-13T05:31:05;13.70;;;2.28;;
52386;SDS011;38317;53.084;6.960;2023-07-13T05:33:33;7.90;;;2.10;;
52386;SDS011;38317;53.084;6.960;2023-07-13T05:35:58;11.05;;;3.17;;
52386;SDS011;38317;53.084;6.960;2023-07-13T05:38:25;10.05;;;2.30;;
52386;SDS011;38317;53.084;6.960;2023-07-13T05:40:53;6.15;;;2.00;;
52386;SDS011;38317;53.084;6.960;2023-07-13T05:43:20;8.90;;;2.13;;
52386;SDS011;38317;53.084;6.960;2023-07-13T05:49:08;8.80;;;2.05;;
52386;SDS011;38317;53.084;6.960;2023-07-13T05:51:34;8.07;;;2.00;;
52386;SDS011;38317;53.084;6.960;2023-07-13T05:54:00;7.18;;;1.90;;
52386;SDS011;38317;53.084;6.960;2023-07-13T05:56:26;11.23;;;2.33;;
52386;SDS011;38317;53.084;6.960;2023-07-13T05:58:51;7.22;;;1.90;;
52386;SDS011;38317;53.084;6.960;2023-07-13T06:01:17;5.72;;;1.75;;
52386;SDS011;38317;53.084;6.960;2023-07-13T06:03:46;8.70;;;1.83;;
52386;SDS011;38317;53.084;6.960;2023-07-13T06:06:12;11.55;;;2.55;;
52386;SDS011;38317;53.084;6.960;2023-07-13T06:08:38;9.70;;;2.20;;
52386;SDS011;38317;53.084;6.960;2023-07-13T06:11:05;9.48;;;1.70;;
52386;SDS011;38317;53.084;6.960;2023-07-13T06:13:42;7.70;;;1.60;;
52386;SDS011;38317;53.084;6.960;2023-07-13T06:16:07;11.18;;;2.80;;
52386;SDS011;38317;53.084;6.960;2023-07-13T06:18:34;8.38;;;1.85;;
52386;SDS011;38317;53.084;6.960;2023-07-13T06:21:12;9.05;;;2.22;;
52386;SDS011;38317;53.084;6.960;2023-07-13T06:23:40;11.80;;;2.33;;
52386;SDS011;38317;53.084;6.960;2023-07-13T06:26:06;8.32;;;1.85;;
52386;SDS011;38317;53.084;6.960;2023-07-13T06:28:32;9.55;;;2.13;;
52386;SDS011;38317;53.084;6.960;2023-07-13T06:31:00;6.45;;;1.95;;
52386;SDS011;38317;53.084;6.960;2023-07-13T06:33:26;9.57;;;1.65;;
52386;SDS011;38317;53.084;6.960;2023-07-13T06:35:53;8.32;;;1.58;;
52386;SDS011;38317;53.084;6.960;2023-07-13T06:38:20;6.30;;;1.85;;
52386;SDS011;38317;53.084;6.960;2023-07-13T06:40:46;9.02;;;1.77;;
52386;SDS011;38317;53.084;6.960;2023-07-13T06:43:12;6.50;;;2.22;;
52386;SDS011;38317;53.084;6.960;2023-07-13T06:45:43;6.93;;;1.60;;
52386;SDS011;38317;53.084;6.960;2023-07-13T06:48:15;5.80;;;1.55;;
52386;SDS011;38317;53.084;6.960;2023-07-13T06:50:42;9.73;;;1.70;;
52386;SDS011;38317;53.084;6.960;2023-07-13T06:53:09;4.72;;;1.60;;
52386;SDS011;38317;53.084;6.960;2023-07-13T06:55:36;6.80;;;1.67;;
52386;SDS011;38317;53.084;6.960;2023-07-13T06:58:02;5.07;;;1.33;;
52386;SDS011;38317;53.084;6.960;2023-07-13T07:00:28;9.13;;;1.58;;
52386;SDS011;38317;53.084;6.960;2023-07-13T07:02:54;5.53;;;1.73;;
52386;SDS011;38317;53.084;6.960;2023-07-13T07:05:19;8.30;;;1.63;;
52386;SDS011;38317;53.084;6.960;2023-07-13T07:07:50;10.55;;;1.75;;
52386;SDS011;38317;53.084;6.960;2023-07-13T07:10:17;4.47;;;1.38;;
52386;SDS011;38317;53.084;6.960;2023-07-13T07:12:43;5.85;;;1.33;;
52386;SDS011;38317;53.084;6.960;2023-07-13T07:15:09;7.68;;;2.00;;
52386;SDS011;38317;53.084;6.960;2023-07-13T07:17:35;4.25;;;1.40;;
52386;SDS011;38317;53.084;6.960;2023-07-13T07:20:01;7.53;;;1.75;;
52386;SDS011;38317;53.084;6.960;2023-07-13T07:22:28;5.60;;;1.17;;
52386;SDS011;38317;53.084;6.960;2023-07-13T07:24:55;8.60;;;1.48;;
52386;SDS011;38317;53.084;6.960;2023-07-13T07:27:22;6.35;;;1.38;;
52386;SDS011;38317;53.084;6.960;2023-07-13T07:29:48;5.85;;;1.35;;
52386;SDS011;38317;53.084;6.960;2023-07-13T07:32:14;6.25;;;1.48;;
52386;SDS011;38317;53.084;6.960;2023-07-13T07:34:40;8.43;;;1.20;;
52386;SDS011;38317;53.084;6.960;2023-07-13T07:37:05;5.47;;;1.38;;
52386;SDS011;38317;53.084;6.960;2023-07-13T07:39:31;8.15;;;1.50;;
52386;SDS011;38317;53.084;6.960;2023-07-13T07:41:58;5.32;;;1.33;;
52386;SDS011;38317;53.084;6.960;2023-07-13T07:44:23;4.22;;;1.20;;
52386;SDS011;38317;53.084;6.960;2023-07-13T07:46:49;7.97;;;1.30;;
52386;SDS011;38317;53.084;6.960;2023-07-13T07:49:17;4.70;;;1.38;;
52386;SDS011;38317;53.084;6.960;2023-07-13T07:51:43;6.25;;;1.30;;
52386;SDS011;38317;53.084;6.960;2023-07-13T07:54:09;4.85;;;1.25;;
52386;SDS011;38317;53.084;6.960;2023-07-13T07:56:34;4.28;;;0.90;;
52386;SDS011;38317;53.084;6.960;2023-07-13T07:59:00;5.10;;;1.20;;
52386;SDS011;38317;53.084;6.960;2023-07-13T08:01:26;6.88;;;0.95;;
52386;SDS011;38317;53.084;6.960;2023-07-13T08:03:52;4.72;;;1.33;;
52386;SDS011;38317;53.084;6.960;2023-07-13T08:06:17;3.78;;;1.10;;
52386;SDS011;38317;53.084;6.960;2023-07-13T08:08:45;6.20;;;1.50;;
52386;SDS011;38317;53.084;6.960;2023-07-13T08:11:10;4.60;;;1.13;;
52386;SDS011;38317;53.084;6.960;2023-07-13T08:13:36;5.75;;;1.33;;
52386;SDS011;38317;53.084;6.960;2023-07-13T08:16:03;4.13;;;1.30;;
52386;SDS011;38317;53.084;6.960;2023-07-13T08:18:30;4.13;;;1.20;;
52386;SDS011;38317;53.084;6.960;2023-07-13T08:20:56;4.07;;;1.48;;
52386;SDS011;38317;53.084;6.960;2023-07-13T08:23:23;7.95;;;1.83;;
52386;SDS011;38317;53.084;6.960;2023-07-13T08:25:51;4.70;;;1.40;;
52386;SDS011;38317;53.084;6.960;2023-07-13T08:28:18;9.50;;;1.80;;
52386;SDS011;38317;53.084;6.960;2023-07-13T08:30:45;10.38;;;1.90;;
52386;SDS011;38317;53.084;6.960;2023-07-13T08:33:14;7.60;;;1.67;;
52386;SDS011;38317;53.084;6.960;2023-07-13T08:35:41;7.68;;;1.38;;
52386;SDS011;38317;53.084;6.960;2023-07-13T08:38:06;7.22;;;1.27;;
52386;SDS011;38317;53.084;6.960;2023-07-13T08:40:32;4.25;;;1.35;;
52386;SDS011;38317;53.084;6.960;2023-07-13T08:42:59;3.30;;;1.20;;
52386;SDS011;38317;53.084;6.960;2023-07-13T08:45:39;3.83;;;1.25;;
52386;SDS011;38317;53.084;6.960;2023-07-13T08:50:51;4.72;;;1.35;;
52386;SDS011;38317;53.084;6.960;2023-07-13T08:53:37;5.40;;;1.30;;
52386;SDS011;38317;53.084;6.960;2023-07-13T08:56:09;6.03;;;1.40;;
52386;SDS011;38317;53.084;6.960;2023-07-13T08:58:41;3.72;;;1.20;;
52386;SDS011;38317;53.084;6.960;2023-07-13T09:04:07;4.43;;;1.35;;
52386;SDS011;38317;53.084;6.960;2023-07-13T09:06:38;6.78;;;1.83;;
52386;SDS011;38317;53.084;6.960;2023-07-13T09:09:13;4.43;;;1.25;;
52386;SDS011;38317;53.084;6.960;2023-07-13T09:11:59;7.60;;;2.15;;
52386;SDS011;38317;53.084;6.960;2023-07-13T09:14:48;5.63;;;1.38;;
52386;SDS011;38317;53.084;6.960;2023-07-13T09:19:50;2.67;;;0.60;;
52386;SDS011;38317;53.084;6.960;2023-07-13T09:22:22;4.47;;;0.93;;
52386;SDS011;38317;53.084;6.960;2023-07-13T09:27:42;1.08;;;0.50;;
52386;SDS011;38317;53.084;6.960;2023-07-13T09:32:39;2.63;;;0.70;;
52386;SDS011;38317;53.084;6.960;2023-07-13T09:35:12;1.08;;;0.63;;
52386;SDS011;38317;53.084;6.960;2023-07-13T09:37:40;2.67;;;0.90;;
52386;SDS011;38317;53.084;6.960;2023-07-13T09:40:11;3.13;;;1.05;;
52386;SDS011;38317;53.084;6.960;2023-07-13T09:42:45;1.83;;;0.88;;
52386;SDS011;38317;53.084;6.960;2023-07-13T09:45:11;3.72;;;1.42;;
52386;SDS011;38317;53.084;6.960;2023-07-13T09:47:53;4.32;;;1.73;;
52386;SDS011;38317;53.084;6.960;2023-07-13T09:50:28;2.28;;;1.05;;
52386;SDS011;38317;53.084;6.960;2023-07-13T09:52:54;2.40;;;1.00;;
52386;SDS011;38317;53.084;6.960;2023-07-13T09:55:30;3.28;;;1.35;;
52386;SDS011;38317;53.084;6.960;2023-07-13T09:58:06;2.45;;;1.30;;
52386;SDS011;38317;53.084;6.960;2023-07-13T10:00:35;4.00;;;1.50;;
52386;SDS011;38317;53.084;6.960;2023-07-13T10:03:21;5.75;;;1.77;;
52386;SDS011;38317;53.084;6.960;2023-07-13T10:05:49;5.50;;;1.85;;
52386;SDS011;38317;53.084;6.960;2023-07-13T10:08:26;4.57;;;1.70;;
52386;SDS011;38317;53.084;6.960;2023-07-13T10:11:02;7.53;;;2.20;;
52386;SDS011;38317;53.084;6.960;2023-07-13T10:13:37;8.18;;;2.20;;
52386;SDS011;38317;53.084;6.960;2023-07-13T10:16:08;7.10;;;2.22;;
52386;SDS011;38317;53.084;6.960;2023-07-13T10:18:46;5.85;;;2.10;;
52386;SDS011;38317;53.084;6.960;2023-07-13T10:21:19;6.40;;;1.90;;
52386;SDS011;38317;53.084;6.960;2023-07-13T10:23:51;4.93;;;2.10;;
52386;SDS011;38317;53.084;6.960;2023-07-13T10:26:25;4.88;;;1.60;;
52386;SDS011;38317;53.084;6.960;2023-07-13T10:28:56;4.82;;;1.70;;
52386;SDS011;38317;53.084;6.960;2023-07-13T10:31:26;3.70;;;1.63;;
52386;SDS011;38317;53.084;6.960;2023-07-13T10:33:52;4.32;;;1.60;;
52386;SDS011;38317;53.084;6.960;2023-07-13T10:38:50;6.07;;;1.73;;
52386;SDS011;38317;53.084;6.960;2023-07-13T10:41:19;4.22;;;1.58;;
52386;SDS011;38317;53.084;6.960;2023-07-13T10:43:50;2.88;;;1.45;;
52386;SDS011;38317;53.084;6.960;2023-07-13T10:46:19;4.68;;;1.45;;
52386;SDS011;38317;53.084;6.960;2023-07-13T10:48:49;4.07;;;1.50;;
52386;SDS011;38317;53.084;6.960;2023-07-13T10:51:18;3.17;;;1.65;;
52386;SDS011;38317;53.084;6.960;2023-07-13T10:53:47;4.75;;;1.45;;
52386;SDS011;38317;53.084;6.960;2023-07-13T10:56:34;4.53;;;1.63;;
52386;SDS011;38317;53.084;6.960;2023-07-13T10:59:14;5.57;;;1.77;;
52386;SDS011;38317;53.084;6.960;2023-07-13T11:01:58;8.80;;;1.55;;
52386;SDS011;38317;53.084;6.960;2023-07-13T11:04:28;4.38;;;1.20;;
52386;SDS011;38317;53.084;6.960;2023-07-13T11:07:10;5.13;;;1.20;;
52386;SDS011;38317;53.084;6.960;2023-07-13T11:09:42;2.75;;;1.10;;
52386;SDS011;38317;53.084;6.960;2023-07-13T11:20:31;4.45;;;1.25;;
52386;SDS011;38317;53.084;6.960;2023-07-13T11:23:08;2.40;;;0.90;;
52386;SDS011;38317;53.084;6.960;2023-07-13T11:25:37;2.53;;;0.98;;
52386;SDS011;38317;53.084;6.960;2023-07-13T11:28:05;2.85;;;1.05;;
52386;SDS011;38317;53.084;6.960;2023-07-13T11:30:36;3.10;;;1.10;;
52386;SDS011;38317;53.084;6.960;2023-07-13T11:33:18;2.78;;;0.90;;
52386;SDS011;38317;53.084;6.960;2023-07-13T11:38:31;3.58;;;1.05;;
52386;SDS011;38317;53.084;6.960;2023-07-13T11:43:45;1.92;;;0.80;;
52386;SDS011;38317;53.084;6.960;2023-07-13T11:46:14;4.80;;;0.90;;
52386;SDS011;38317;53.084;6.960;2023-07-13T11:48:43;3.28;;;0.93;;
52386;SDS011;38317;53.084;6.960;2023-07-13T11:51:14;4.80;;;0.90;;
52386;SDS011;38317;53.084;6.960;2023-07-13T11:54:03;2.75;;;0.90;;
52386;SDS011;38317;53.084;6.960;2023-07-13T11:56:32;2.00;;;0.85;;
52386;SDS011;38317;53.084;6.960;2023-07-13T11:59:04;3.00;;;1.10;;
52386;SDS011;38317;53.084;6.960;2023-07-13T12:01:33;3.97;;;1.20;;
52386;SDS011;38317;53.084;6.960;2023-07-13T12:04:02;2.88;;;1.02;;
52386;SDS011;38317;53.084;6.960;2023-07-13T12:06:30;4.43;;;1.30;;
52386;SDS011;38317;53.084;6.960;2023-07-13T12:09:00;3.30;;;1.00;;
52386;SDS011;38317;53.084;6.960;2023-07-13T12:11:28;3.47;;;1.05;;
52386;SDS011;38317;53.084;6.960;2023-07-13T12:13:55;2.22;;;0.80;;
52386;SDS011;38317;53.084;6.960;2023-07-13T12:16:26;4.82;;;1.23;;
52386;SDS011;38317;53.084;6.960;2023-07-13T12:18:58;3.92;;;1.00;;
52386;SDS011;38317;53.084;6.960;2023-07-13T12:21:32;3.63;;;1.10;;
52386;SDS011;38317;53.084;6.960;2023-07-13T12:24:00;2.08;;;0.65;;
52386;SDS011;38317;53.084;6.960;2023-07-13T12:26:29;3.42;;;0.90;;
52386;SDS011;38317;53.084;6.960;2023-07-13T12:28:56;4.25;;;0.80;;
52386;SDS011;38317;53.084;6.960;2023-07-13T12:31:40;3.03;;;0.85;;
52386;SDS011;38317;53.084;6.960;2023-07-13T12:34:13;4.47;;;0.85;;
52386;SDS011;38317;53.084;6.960;2023-07-13T12:36:48;4.28;;;1.00;;
52386;SDS011;38317;53.084;6.960;2023-07-13T12:39:20;3.13;;;0.80;;
52386;SDS011;38317;53.084;6.960;2023-07-13T12:41:51;2.63;;;0.80;;
52386;SDS011;38317;53.084;6.960;2023-07-13T12:44:19;2.08;;;0.60;;
52386;SDS011;38317;53.084;6.960;2023-07-13T12:46:58;4.20;;;0.70;;
52386;SDS011;38317;53.084;6.960;2023-07-13T12:49:30;5.72;;;0.80;;
52386;SDS011;38317;53.084;6.960;2023-07-13T12:52:03;2.47;;;0.73;;
52386;SDS011;38317;53.084;6.960;2023-07-13T12:54:39;2.88;;;0.70;;
52386;SDS011;38317;53.084;6.960;2023-07-13T12:57:05;4.22;;;0.70;;
52386;SDS011;38317;53.084;6.960;2023-07-13T12:59:37;1.67;;;0.50;;
52386;SDS011;38317;53.084;6.960;2023-07-13T13:02:08;1.90;;;0.57;;
52386;SDS011;38317;53.084;6.960;2023-07-13T13:04:48;3.67;;;0.70;;
52386;SDS011;38317;53.084;6.960;2023-07-13T13:07:14;3.35;;;0.70;;
52386;SDS011;38317;53.084;6.960;2023-07-13T13:09:40;1.77;;;0.50;;
52386;SDS011;38317;53.084;6.960;2023-07-13T13:12:06;3.38;;;0.80;;
52386;SDS011;38317;53.084;6.960;2023-07-13T13:14:32;2.65;;;0.60;;
52386;SDS011;38317;53.084;6.960;2023-07-13T13:16:57;4.28;;;0.77;;
52386;SDS011;38317;53.084;6.960;2023-07-13T13:19:25;6.35;;;0.80;;
52386;SDS011;38317;53.084;6.960;2023-07-13T13:21:53;3.58;;;0.85;;
52386;SDS011;38317;53.084;6.960;2023-07-13T13:24:22;2.60;;;0.60;;
52386;SDS011;38317;53.084;6.960;2023-07-13T13:26:51;2.55;;;0.70;;
52386;SDS011;38317;53.084;6.960;2023-07-13T13:29:19;3.65;;;1.05;;
52386;SDS011;38317;53.084;6.960;2023-07-13T13:31:49;2.53;;;0.80;;
52386;SDS011;38317;53.084;6.960;2023-07-13T13:34:16;1.83;;;0.50;;
52386;SDS011;38317;53.084;6.960;2023-07-13T13:36:43;2.70;;;0.50;;
52386;SDS011;38317;53.084;6.960;2023-07-13T13:39:20;2.38;;;0.50;;
52386;SDS011;38317;53.084;6.960;2023-07-13T13:41:48;4.00;;;0.60;;
52386;SDS011;38317;53.084;6.960;2023-07-13T13:44:16;1.63;;;0.55;;
52386;SDS011;38317;53.084;6.960;2023-07-13T13:46:43;3.17;;;0.50;;
52386;SDS011;38317;53.084;6.960;2023-07-13T13:49:13;2.38;;;0.60;;
52386;SDS011;38317;53.084;6.960;2023-07-13T13:51:44;3.38;;;0.50;;
52386;SDS011;38317;53.084;6.960;2023-07-13T13:54:12;2.17;;;0.55;;
52386;SDS011;38317;53.084;6.960;2023-07-13T13:56:40;3.25;;;0.50;;
52386;SDS011;38317;53.084;6.960;2023-07-13T13:59:10;3.05;;;0.50;;
52386;SDS011;38317;53.084;6.960;2023-07-13T14:01:36;2.65;;;0.55;;
52386;SDS011;38317;53.084;6.960;2023-07-13T14:04:03;2.35;;;0.40;;
52386;SDS011;38317;53.084;6.960;2023-07-13T14:06:30;2.47;;;0.45;;
52386;SDS011;38317;53.084;6.960;2023-07-13T14:08:56;3.42;;;0.60;;
52386;SDS011;38317;53.084;6.960;2023-07-13T14:11:22;2.15;;;0.43;;
52386;SDS011;38317;53.084;6.960;2023-07-13T14:13:53;2.33;;;0.40;;
52386;SDS011;38317;53.084;6.960;2023-07-13T14:16:21;2.50;;;0.60;;
52386;SDS011;38317;53.084;6.960;2023-07-13T14:18:52;2.47;;;0.50;;
52386;SDS011;38317;53.084;6.960;2023-07-13T14:21:19;2.35;;;0.47;;
52386;SDS011;38317;53.084;6.960;2023-07-13T14:23:47;1.17;;;0.40;;
52386;SDS011;38317;53.084;6.960;2023-07-13T14:26:14;2.20;;;0.40;;
52386;SDS011;38317;53.084;6.960;2023-07-13T14:28:55;1.42;;;0.30;;
52386;SDS011;38317;53.084;6.960;2023-07-13T14:31:23;4.05;;;0.60;;
52386;SDS011;38317;53.084;6.960;2023-07-13T14:33:49;1.88;;;0.55;;
52386;SDS011;38317;53.084;6.960;2023-07-13T14:36:32;1.65;;;0.50;;
52386;SDS011;38317;53.084;6.960;2023-07-13T14:39:17;2.95;;;0.60;;
52386;SDS011;38317;53.084;6.960;2023-07-13T14:41:44;3.22;;;0.65;;
52386;SDS011;38317;53.084;6.960;2023-07-13T14:44:14;3.80;;;0.75;;
52386;SDS011;38317;53.084;6.960;2023-07-13T14:46:41;2.03;;;0.60;;
52386;SDS011;38317;53.084;6.960;2023-07-13T14:52:17;4.95;;;1.05;;
52386;SDS011;38317;53.084;6.960;2023-07-13T14:54:45;3.38;;;0.70;;
52386;SDS011;38317;53.084;6.960;2023-07-13T14:57:12;2.47;;;0.60;;
52386;SDS011;38317;53.084;6.960;2023-07-13T14:59:39;4.18;;;1.10;;
52386;SDS011;38317;53.084;6.960;2023-07-13T15:02:13;5.97;;;0.60;;
52386;SDS011;38317;53.084;6.960;2023-07-13T15:04:53;2.47;;;0.60;;
52386;SDS011;38317;53.084;6.960;2023-07-13T15:07:19;2.88;;;0.75;;
52386;SDS011;38317;53.084;6.960;2023-07-13T15:09:48;2.58;;;0.60;;
52386;SDS011;38317;53.084;6.960;2023-07-13T15:12:18;2.05;;;0.50;;
52386;SDS011;38317;53.084;6.960;2023-07-13T15:14:45;3.30;;;0.73;;
52386;SDS011;38317;53.084;6.960;2023-07-13T15:17:23;7.18;;;0.68;;
52386;SDS011;38317;53.084;6.960;2023-07-13T15:19:53;3.72;;;0.93;;
52386;SDS011;38317;53.084;6.960;2023-07-13T15:22:18;1.88;;;0.40;;
52386;SDS011;38317;53.084;6.960;2023-07-13T15:24:44;3.15;;;0.60;;
52386;SDS011;38317;53.084;6.960;2023-07-13T15:27:13;1.38;;;0.40;;
52386;SDS011;38317;53.084;6.960;2023-07-13T15:29:39;1.38;;;0.40;;
52386;SDS011;38317;53.084;6.960;2023-07-13T15:32:12;3.03;;;0.70;;
52386;SDS011;38317;53.084;6.960;2023-07-13T15:34:39;2.90;;;0.63;;
52386;SDS011;38317;53.084;6.960;2023-07-13T15:37:15;1.27;;;0.50;;
52386;SDS011;38317;53.084;6.960;2023-07-13T15:39:42;1.30;;;0.40;;